createdAt,value
2018-03-22T00:00:38.267Z,984.14
2018-03-22T00:01:38.166Z,984.12
2018-03-22T00:02:38.091Z,984.12
2018-03-22T00:03:37.996Z,984.13
2018-03-22T00:04:37.926Z,984.13
2018-03-22T00:05:37.836Z,984.10
2018-03-22T00:06:37.757Z,984.04
2018-03-22T00:07:37.658Z,984.03
2018-03-22T00:08:37.585Z,984.04
2018-03-22T00:09:37.494Z,984.02
2018-03-22T00:10:37.409Z,983.99
2018-03-22T00:11:37.317Z,983.95
2018-03-22T00:12:37.244Z,983.94
2018-03-22T00:13:37.148Z,983.92
2018-03-22T00:14:37.073Z,983.94
2018-03-22T00:15:36.979Z,983.94
2018-03-22T00:16:36.904Z,983.92
2018-03-22T00:17:36.812Z,983.92
2018-03-22T00:18:36.740Z,983.95
2018-03-22T00:19:36.638Z,983.91
2018-03-22T00:20:36.558Z,983.89
2018-03-22T00:21:36.469Z,983.87
2018-03-22T00:22:36.388Z,983.83
2018-03-22T00:23:36.301Z,983.87
2018-03-22T00:24:36.221Z,983.88
2018-03-22T00:25:36.130Z,983.84
2018-03-22T00:26:36.053Z,983.85
2018-03-22T00:27:35.968Z,983.83
2018-03-22T00:28:35.883Z,983.86
2018-03-22T00:29:35.792Z,983.80
2018-03-22T00:30:35.715Z,983.82
2018-03-22T00:31:35.623Z,983.83
2018-03-22T00:32:35.541Z,983.84
2018-03-22T00:33:35.453Z,983.83
2018-03-22T00:34:35.373Z,983.84
2018-03-22T00:35:35.282Z,983.79
2018-03-22T00:36:35.207Z,983.77
2018-03-22T00:37:35.111Z,983.78
2018-03-22T00:38:35.034Z,983.77
2018-03-22T00:39:34.941Z,983.73
2018-03-22T00:40:34.863Z,983.73
2018-03-22T00:41:34.771Z,983.76
2018-03-22T00:42:34.699Z,983.76
2018-03-22T00:43:34.600Z,983.78
2018-03-22T00:44:34.522Z,983.71
2018-03-22T00:45:34.430Z,983.69
2018-03-22T00:46:34.351Z,983.67
2018-03-22T00:47:34.260Z,983.67
2018-03-22T00:48:34.183Z,983.64
2018-03-22T00:49:34.092Z,983.63
2018-03-22T00:50:34.015Z,983.63
2018-03-22T00:51:33.916Z,983.62
2018-03-22T00:52:33.843Z,983.62
2018-03-22T00:53:33.752Z,983.62
2018-03-22T00:54:33.677Z,983.62
2018-03-22T00:55:33.580Z,983.62
2018-03-22T00:56:33.502Z,983.58
2018-03-22T00:57:33.410Z,983.57
2018-03-22T00:58:33.337Z,983.55
2018-03-22T00:59:33.243Z,983.56
2018-03-22T01:00:33.169Z,983.56
2018-03-22T01:01:33.083Z,983.52
2018-03-22T01:02:32.994Z,983.52
2018-03-22T01:03:32.898Z,983.51
2018-03-22T01:04:32.821Z,983.47
2018-03-22T01:05:32.734Z,983.43
2018-03-22T01:06:32.650Z,983.41
2018-03-22T01:07:32.558Z,983.42
2018-03-22T01:08:32.482Z,983.41
2018-03-22T01:09:32.391Z,983.39
2018-03-22T01:10:32.309Z,983.39
2018-03-22T01:11:32.217Z,983.37
2018-03-22T01:12:32.142Z,983.34
2018-03-22T01:13:32.048Z,983.34
2018-03-22T01:14:31.971Z,983.36
2018-03-22T01:15:31.877Z,983.33
2018-03-22T01:16:31.798Z,983.28
2018-03-22T01:17:31.704Z,983.32
2018-03-22T01:18:31.629Z,983.34
2018-03-22T01:19:31.541Z,983.31
2018-03-22T01:20:31.466Z,983.30
2018-03-22T01:21:31.369Z,983.30
2018-03-22T01:22:31.295Z,983.31
2018-03-22T01:23:31.201Z,983.31
2018-03-22T01:24:31.122Z,983.29
2018-03-22T01:25:31.027Z,983.34
2018-03-22T01:26:30.946Z,983.29
2018-03-22T01:27:30.850Z,983.26
2018-03-22T01:28:30.778Z,983.26
2018-03-22T01:29:30.684Z,983.22
2018-03-22T01:30:30.604Z,983.22
2018-03-22T01:31:30.513Z,983.22
2018-03-22T01:32:30.432Z,983.24
2018-03-22T01:33:30.345Z,983.20
2018-03-22T01:34:30.303Z,983.21
2018-03-22T01:35:30.181Z,983.23
2018-03-22T01:36:30.092Z,983.24
2018-03-22T01:37:30.001Z,983.22
2018-03-22T01:38:29.924Z,983.21
2018-03-22T01:39:29.831Z,983.26
2018-03-22T01:40:29.752Z,983.21
2018-03-22T01:41:29.661Z,983.17
2018-03-22T01:42:29.595Z,983.18
2018-03-22T01:43:29.487Z,983.21
2018-03-22T01:44:29.424Z,983.18
2018-03-22T01:45:29.320Z,983.13
2018-03-22T01:46:29.237Z,983.08
2018-03-22T01:47:29.147Z,983.12
2018-03-22T01:48:29.073Z,983.08
2018-03-22T01:49:28.983Z,983.08
2018-03-22T01:50:28.900Z,983.02
2018-03-22T01:51:28.809Z,982.97
2018-03-22T01:52:28.731Z,982.97
2018-03-22T01:53:28.635Z,982.93
2018-03-22T01:54:28.558Z,982.88
2018-03-22T01:55:28.463Z,982.90
2018-03-22T01:56:28.388Z,982.88
2018-03-22T01:57:28.297Z,982.86
2018-03-22T01:58:28.219Z,982.88
2018-03-22T01:59:28.124Z,982.85
2018-03-22T02:00:28.046Z,982.82
2018-03-22T02:01:27.954Z,982.88
2018-03-22T02:02:27.879Z,982.83
2018-03-22T02:03:27.784Z,982.85
2018-03-22T02:04:27.705Z,982.81
2018-03-22T02:05:27.614Z,982.84
2018-03-22T02:06:27.534Z,982.85
2018-03-22T02:07:27.438Z,982.85
2018-03-22T02:08:27.361Z,982.82
2018-03-22T02:09:27.272Z,982.79
2018-03-22T02:10:27.188Z,982.81
2018-03-22T02:11:27.098Z,982.78
2018-03-22T02:12:27.018Z,982.78
2018-03-22T02:13:26.926Z,982.76
2018-03-22T02:14:26.853Z,982.77
2018-03-22T02:15:26.754Z,982.72
2018-03-22T02:16:26.678Z,982.67
2018-03-22T02:17:26.585Z,982.67
2018-03-22T02:18:26.508Z,982.72
2018-03-22T02:19:26.416Z,982.66
2018-03-22T02:20:26.337Z,982.62
2018-03-22T02:21:26.241Z,982.61
2018-03-22T02:22:26.160Z,982.60
2018-03-22T02:23:26.070Z,982.57
2018-03-22T02:24:25.990Z,982.55
2018-03-22T02:25:25.901Z,982.53
2018-03-22T02:26:25.823Z,982.54
2018-03-22T02:27:25.728Z,982.49
2018-03-22T02:28:25.649Z,982.52
2018-03-22T02:29:25.591Z,982.50
2018-03-22T02:30:25.485Z,982.48
2018-03-22T02:31:25.387Z,982.45
2018-03-22T02:32:25.308Z,982.47
2018-03-22T02:33:25.214Z,982.48
2018-03-22T02:34:25.135Z,982.45
2018-03-22T02:35:25.045Z,982.47
2018-03-22T02:36:24.968Z,982.43
2018-03-22T02:37:24.872Z,982.43
2018-03-22T02:38:24.795Z,982.42
2018-03-22T02:39:24.704Z,982.40
2018-03-22T02:40:24.623Z,982.43
2018-03-22T02:41:24.533Z,982.43
2018-03-22T02:42:24.445Z,982.40
2018-03-22T02:43:24.356Z,982.42
2018-03-22T02:44:24.284Z,982.38
2018-03-22T02:45:24.184Z,982.37
2018-03-22T02:46:24.109Z,982.36
2018-03-22T02:47:24.017Z,982.35
2018-03-22T02:48:23.937Z,982.33
2018-03-22T02:49:23.847Z,982.33
2018-03-22T02:50:23.767Z,982.31
2018-03-22T02:51:23.672Z,982.31
2018-03-22T02:52:23.593Z,982.35
2018-03-22T02:53:23.502Z,982.33
2018-03-22T02:54:23.424Z,982.31
2018-03-22T02:55:23.328Z,982.29
2018-03-22T02:56:23.248Z,982.27
2018-03-22T02:57:23.164Z,982.29
2018-03-22T02:58:23.083Z,982.26
2018-03-22T02:59:22.987Z,982.25
2018-03-22T03:00:22.908Z,982.19
2018-03-22T03:01:22.809Z,982.19
2018-03-22T03:02:22.737Z,982.14
2018-03-22T03:03:22.641Z,982.12
2018-03-22T03:04:22.574Z,982.13
2018-03-22T03:05:22.469Z,982.07
2018-03-22T03:06:22.395Z,982.07
2018-03-22T03:07:22.300Z,982.01
2018-03-22T03:08:22.222Z,982.07
2018-03-22T03:09:22.129Z,982.00
2018-03-22T03:10:22.054Z,982.00
2018-03-22T03:11:21.955Z,981.98
2018-03-22T03:12:21.879Z,981.95
2018-03-22T03:13:21.786Z,981.90
2018-03-22T03:14:21.709Z,981.88
2018-03-22T03:15:21.619Z,981.86
2018-03-22T03:16:21.533Z,981.85
2018-03-22T03:17:21.439Z,981.83
2018-03-22T03:18:21.372Z,981.87
2018-03-22T03:19:21.270Z,981.89
2018-03-22T03:20:21.193Z,981.87
2018-03-22T03:21:21.094Z,981.87
2018-03-22T03:22:21.016Z,981.87
2018-03-22T03:23:20.924Z,981.85
2018-03-22T03:24:20.847Z,981.78
2018-03-22T03:25:20.756Z,981.78
2018-03-22T03:26:20.673Z,981.75
2018-03-22T03:27:20.583Z,981.74
2018-03-22T03:28:20.505Z,981.72
2018-03-22T03:29:20.410Z,981.71
2018-03-22T03:30:20.436Z,981.69
2018-03-22T03:31:20.240Z,981.64
2018-03-22T03:32:20.158Z,981.69
2018-03-22T03:33:20.069Z,981.64
2018-03-22T03:34:19.993Z,981.62
2018-03-22T03:35:19.893Z,981.63
2018-03-22T03:36:19.816Z,981.64
2018-03-22T03:37:19.722Z,981.64
2018-03-22T03:38:19.648Z,981.64
2018-03-22T03:39:19.549Z,981.61
2018-03-22T03:40:19.473Z,981.62
2018-03-22T03:41:19.427Z,981.60
2018-03-22T03:42:19.305Z,981.59
2018-03-22T03:43:19.208Z,981.59
2018-03-22T03:44:19.126Z,981.58
2018-03-22T03:45:19.040Z,981.58
2018-03-22T03:46:18.956Z,981.55
2018-03-22T03:47:18.862Z,981.58
2018-03-22T03:48:18.804Z,981.58
2018-03-22T03:49:18.697Z,981.58
2018-03-22T03:50:18.609Z,981.58
2018-03-22T03:51:18.519Z,981.61
2018-03-22T03:52:18.438Z,981.63
2018-03-22T03:53:18.346Z,981.59
2018-03-22T03:54:18.272Z,981.60
2018-03-22T03:55:18.178Z,981.59
2018-03-22T03:56:18.099Z,981.54
2018-03-22T03:57:18.002Z,981.55
2018-03-22T03:58:17.930Z,981.54
2018-03-22T03:59:17.834Z,981.54
2018-03-22T04:00:17.752Z,981.56
2018-03-22T04:01:17.659Z,981.50
2018-03-22T04:02:17.577Z,981.47
2018-03-22T04:03:17.485Z,981.48
2018-03-22T04:04:17.406Z,981.45
2018-03-22T04:05:17.314Z,981.45
2018-03-22T04:06:17.238Z,981.44
2018-03-22T04:07:17.140Z,981.42
2018-03-22T04:08:17.063Z,981.39
2018-03-22T04:09:16.965Z,981.36
2018-03-22T04:10:16.893Z,981.33
2018-03-22T04:11:16.798Z,981.34
2018-03-22T04:12:16.721Z,981.34
2018-03-22T04:13:16.623Z,981.35
2018-03-22T04:14:16.550Z,981.35
2018-03-22T04:15:16.452Z,981.34
2018-03-22T04:16:16.377Z,981.33
2018-03-22T04:17:16.282Z,981.34
2018-03-22T04:18:16.199Z,981.30
2018-03-22T04:19:16.106Z,981.29
2018-03-22T04:20:16.032Z,981.27
2018-03-22T04:21:15.938Z,981.26
2018-03-22T04:22:15.859Z,981.23
2018-03-22T04:23:15.769Z,981.22
2018-03-22T04:24:15.680Z,981.21
2018-03-22T04:25:15.594Z,981.19
2018-03-22T04:26:15.513Z,981.17
2018-03-22T04:27:15.426Z,981.14
2018-03-22T04:28:15.344Z,981.11
2018-03-22T04:29:15.244Z,981.08
2018-03-22T04:30:15.168Z,981.06
2018-03-22T04:31:15.073Z,981.02
2018-03-22T04:32:14.997Z,981.00
2018-03-22T04:33:14.903Z,980.94
2018-03-22T04:34:14.828Z,980.95
2018-03-22T04:35:14.730Z,980.90
2018-03-22T04:36:14.650Z,980.89
2018-03-22T04:37:14.563Z,980.89
2018-03-22T04:38:14.479Z,980.89
2018-03-22T04:39:14.389Z,980.83
2018-03-22T04:40:14.309Z,980.83
2018-03-22T04:41:14.214Z,980.82
2018-03-22T04:42:14.142Z,980.84
2018-03-22T04:43:14.042Z,980.83
2018-03-22T04:44:13.968Z,980.76
2018-03-22T04:45:13.870Z,980.84
2018-03-22T04:46:13.795Z,980.78
2018-03-22T04:47:13.705Z,980.73
2018-03-22T04:48:13.619Z,980.75
2018-03-22T04:49:13.528Z,980.73
2018-03-22T04:50:13.467Z,980.69
2018-03-22T04:51:13.353Z,980.72
2018-03-22T04:52:13.347Z,980.73
2018-03-22T04:53:13.180Z,980.77
2018-03-22T04:54:13.104Z,980.73
2018-03-22T04:55:13.010Z,980.71
2018-03-22T04:56:12.937Z,980.72
2018-03-22T04:57:12.846Z,980.69
2018-03-22T04:58:12.762Z,980.69
2018-03-22T04:59:12.711Z,980.69
2018-03-22T05:00:12.586Z,980.65
2018-03-22T05:01:12.496Z,980.68
2018-03-22T05:02:12.420Z,980.61
2018-03-22T05:03:12.320Z,980.63
2018-03-22T05:04:12.246Z,980.63
2018-03-22T05:05:12.151Z,980.65
2018-03-22T05:06:12.076Z,980.65
2018-03-22T05:07:11.980Z,980.62
2018-03-22T05:08:11.904Z,980.61
2018-03-22T05:09:11.807Z,980.62
2018-03-22T05:10:11.729Z,980.65
2018-03-22T05:11:11.631Z,980.63
2018-03-22T05:12:11.556Z,980.60
2018-03-22T05:13:11.462Z,980.58
2018-03-22T05:14:11.385Z,980.59
2018-03-22T05:15:11.293Z,980.62
2018-03-22T05:16:11.214Z,980.60
2018-03-22T05:17:11.121Z,980.61
2018-03-22T05:18:11.041Z,980.59
2018-03-22T05:19:10.950Z,980.57
2018-03-22T05:20:10.868Z,980.54
2018-03-22T05:21:10.781Z,980.52
2018-03-22T05:22:10.700Z,980.58
2018-03-22T05:23:10.603Z,980.51
2018-03-22T05:24:10.526Z,980.52
2018-03-22T05:25:10.433Z,980.50
2018-03-22T05:26:10.361Z,980.49
2018-03-22T05:27:10.264Z,980.47
2018-03-22T05:28:10.183Z,980.47
2018-03-22T05:29:10.089Z,980.49
2018-03-22T05:30:10.009Z,980.46
2018-03-22T05:31:09.925Z,980.44
2018-03-22T05:32:09.839Z,980.45
2018-03-22T05:33:09.749Z,980.48
2018-03-22T05:34:09.667Z,980.48
2018-03-22T05:35:09.583Z,980.44
2018-03-22T05:36:09.492Z,980.45
2018-03-22T05:37:09.405Z,980.46
2018-03-22T05:38:09.329Z,980.48
2018-03-22T05:39:09.233Z,980.47
2018-03-22T05:40:09.153Z,980.44
2018-03-22T05:41:09.102Z,980.43
2018-03-22T05:42:08.980Z,980.42
2018-03-22T05:43:08.903Z,980.43
2018-03-22T05:44:08.813Z,980.39
2018-03-22T05:45:08.719Z,980.37
2018-03-22T05:46:08.639Z,980.33
2018-03-22T05:47:08.544Z,980.32
2018-03-22T05:48:08.468Z,980.31
2018-03-22T05:49:08.374Z,980.28
2018-03-22T05:50:08.295Z,980.30
2018-03-22T05:51:08.205Z,980.28
2018-03-22T05:52:08.125Z,980.29
2018-03-22T05:53:08.030Z,980.30
2018-03-22T05:54:07.951Z,980.31
2018-03-22T05:55:07.859Z,980.29
2018-03-22T05:56:07.786Z,980.31
2018-03-22T05:57:07.691Z,980.28
2018-03-22T05:58:07.613Z,980.32
2018-03-22T05:59:07.519Z,980.33
2018-03-22T06:00:07.435Z,980.37
2018-03-22T06:01:07.347Z,980.34
2018-03-22T06:02:07.278Z,980.34
2018-03-22T06:03:07.185Z,980.31
2018-03-22T06:04:07.098Z,980.28
2018-03-22T06:05:07.013Z,980.24
2018-03-22T06:06:06.929Z,980.23
2018-03-22T06:07:06.835Z,980.26
2018-03-22T06:08:06.760Z,980.22
2018-03-22T06:09:06.660Z,980.22
2018-03-22T06:10:06.586Z,980.27
2018-03-22T06:11:06.495Z,980.23
2018-03-22T06:12:06.420Z,980.25
2018-03-22T06:13:06.323Z,980.21
2018-03-22T06:14:06.235Z,980.24
2018-03-22T06:15:06.179Z,980.20
2018-03-22T06:16:06.066Z,980.18
2018-03-22T06:17:05.989Z,980.15
2018-03-22T06:18:05.897Z,980.12
2018-03-22T06:19:05.817Z,980.09
2018-03-22T06:20:05.724Z,980.10
2018-03-22T06:21:05.650Z,980.10
2018-03-22T06:22:05.556Z,980.07
2018-03-22T06:23:05.474Z,980.09
2018-03-22T06:24:05.386Z,980.10
2018-03-22T06:25:05.310Z,980.09
2018-03-22T06:26:05.221Z,980.06
2018-03-22T06:27:05.139Z,980.01
2018-03-22T06:28:05.045Z,980.02
2018-03-22T06:29:04.966Z,979.99
2018-03-22T06:30:04.874Z,979.97
2018-03-22T06:31:04.794Z,979.98
2018-03-22T06:32:04.704Z,979.96
2018-03-22T06:33:04.676Z,979.95
2018-03-22T06:34:04.536Z,979.91
2018-03-22T06:35:04.458Z,979.91
2018-03-22T06:36:04.362Z,979.90
2018-03-22T06:37:04.289Z,979.91
2018-03-22T06:38:04.202Z,979.89
2018-03-22T06:39:04.119Z,979.90
2018-03-22T06:40:04.037Z,979.89
2018-03-22T06:41:03.949Z,979.86
2018-03-22T06:42:03.859Z,979.90
2018-03-22T06:43:03.773Z,979.89
2018-03-22T06:44:03.686Z,979.93
2018-03-22T06:45:03.610Z,979.93
2018-03-22T06:46:03.518Z,979.93
2018-03-22T06:47:03.441Z,979.97
2018-03-22T06:48:03.350Z,979.94
2018-03-22T06:49:03.273Z,979.93
2018-03-22T06:50:03.181Z,979.95
2018-03-22T06:51:03.106Z,979.91
2018-03-22T06:52:03.010Z,979.89
2018-03-22T06:53:02.931Z,979.87
2018-03-22T06:54:02.842Z,979.84
2018-03-22T06:55:02.767Z,979.86
2018-03-22T06:56:02.673Z,979.92
2018-03-22T06:57:02.624Z,979.89
2018-03-22T06:58:02.504Z,979.88
2018-03-22T06:59:02.424Z,979.89
2018-03-22T07:00:02.335Z,979.88
2018-03-22T07:01:02.253Z,979.88
2018-03-22T07:02:02.165Z,979.93
2018-03-22T07:03:02.086Z,979.90
2018-03-22T07:04:01.997Z,979.95
2018-03-22T07:05:01.920Z,979.93
2018-03-22T07:06:01.832Z,979.95
2018-03-22T07:07:01.752Z,979.95
2018-03-22T07:08:01.661Z,979.98
2018-03-22T07:09:01.584Z,979.96
2018-03-22T07:10:01.494Z,979.96
2018-03-22T07:11:01.415Z,979.95
2018-03-22T07:12:01.327Z,979.93
2018-03-22T07:13:01.252Z,979.95
2018-03-22T07:14:01.159Z,979.96
2018-03-22T07:15:01.078Z,979.97
2018-03-22T07:16:00.990Z,979.97
2018-03-22T07:17:00.914Z,979.96
2018-03-22T07:18:00.819Z,979.93
2018-03-22T07:19:00.742Z,979.98
2018-03-22T07:20:00.650Z,979.98
2018-03-22T07:21:00.577Z,979.94
2018-03-22T07:22:00.485Z,979.96
2018-03-22T07:23:00.414Z,979.94
2018-03-22T07:24:00.318Z,979.93
2018-03-22T07:25:00.243Z,979.96
2018-03-22T07:26:00.156Z,979.97
2018-03-22T07:27:00.079Z,979.94
2018-03-22T07:27:59.983Z,979.93
2018-03-22T07:28:59.906Z,979.87
2018-03-22T07:29:59.814Z,979.87
2018-03-22T07:30:59.741Z,979.86
2018-03-22T07:31:59.653Z,979.86
2018-03-22T07:32:59.576Z,979.89
2018-03-22T07:33:59.483Z,979.88
2018-03-22T07:34:59.413Z,979.84
2018-03-22T07:35:59.319Z,979.86
2018-03-22T07:36:59.240Z,979.84
2018-03-22T07:37:59.147Z,979.86
2018-03-22T07:38:59.074Z,979.84
2018-03-22T07:39:58.983Z,979.86
2018-03-22T07:40:58.906Z,979.84
2018-03-22T07:41:58.820Z,979.82
2018-03-22T07:42:58.741Z,979.84
2018-03-22T07:43:58.650Z,979.83
2018-03-22T07:44:58.590Z,979.86
2018-03-22T07:45:58.487Z,979.84
2018-03-22T07:46:58.405Z,979.89
2018-03-22T07:47:58.316Z,979.88
2018-03-22T07:48:58.248Z,979.83
2018-03-22T07:49:58.152Z,979.83
2018-03-22T07:50:58.073Z,979.79
2018-03-22T07:51:57.985Z,979.76
2018-03-22T07:52:57.909Z,979.80
2018-03-22T07:53:57.819Z,979.78
2018-03-22T07:54:57.786Z,979.77
2018-03-22T07:55:57.652Z,979.76
2018-03-22T07:56:57.579Z,979.76
2018-03-22T07:57:57.490Z,979.75
2018-03-22T07:58:57.520Z,979.75
2018-03-22T07:59:57.322Z,979.73
2018-03-22T08:00:57.314Z,979.75
2018-03-22T08:01:57.160Z,979.69
2018-03-22T08:02:57.120Z,979.74
2018-03-22T08:03:56.994Z,979.74
2018-03-22T08:04:57.032Z,979.72
2018-03-22T08:05:56.832Z,979.67
2018-03-22T08:06:56.872Z,979.64
2018-03-22T08:07:56.657Z,979.69
2018-03-22T08:08:56.648Z,979.67
2018-03-22T08:09:56.497Z,979.63
2018-03-22T08:10:56.459Z,979.65
2018-03-22T08:11:56.329Z,979.65
2018-03-22T08:12:56.265Z,979.63
2018-03-22T08:13:56.168Z,979.64
2018-03-22T08:14:56.184Z,979.63
2018-03-22T08:15:55.997Z,979.60
2018-03-22T08:16:55.983Z,979.60
2018-03-22T08:17:55.842Z,979.54
2018-03-22T08:18:55.792Z,979.49
2018-03-22T08:19:55.676Z,979.49
2018-03-22T08:20:55.703Z,979.50
2018-03-22T08:21:55.504Z,979.49
2018-03-22T08:22:55.513Z,979.47
2018-03-22T08:23:55.340Z,979.42
2018-03-22T08:24:55.319Z,979.47
2018-03-22T08:25:55.178Z,979.44
2018-03-22T08:26:55.129Z,979.46
2018-03-22T08:27:55.012Z,979.37
2018-03-22T08:28:55.038Z,979.38
2018-03-22T08:29:54.849Z,979.35
2018-03-22T08:30:54.850Z,979.36
2018-03-22T08:31:54.684Z,979.31
2018-03-22T08:32:54.660Z,979.36
2018-03-22T08:33:54.521Z,979.43
2018-03-22T08:34:54.463Z,979.37
2018-03-22T08:35:54.355Z,979.35
2018-03-22T08:36:54.376Z,979.40
2018-03-22T08:37:54.190Z,979.39
2018-03-22T08:39:04.932Z,979.34
2018-03-22T08:40:04.940Z,979.34
2018-03-22T08:40:53.947Z,979.34
2018-03-22T08:41:53.873Z,979.33
2018-03-22T08:42:53.775Z,979.26
2018-03-22T08:43:53.808Z,979.28
2018-03-22T08:44:53.614Z,979.32
2018-03-22T08:45:53.533Z,979.26
2018-03-22T08:46:53.520Z,979.22
2018-03-22T08:47:53.375Z,979.20
2018-03-22T08:48:53.328Z,979.21
2018-03-22T08:49:53.206Z,979.17
2018-03-22T08:50:53.240Z,979.19
2018-03-22T08:51:53.038Z,979.17
2018-03-22T08:52:53.046Z,979.21
2018-03-22T08:53:52.878Z,979.23
2018-03-22T08:54:52.856Z,979.17
2018-03-22T08:55:52.715Z,979.17
2018-03-22T08:56:52.672Z,979.14
2018-03-22T08:57:52.551Z,979.12
2018-03-22T08:58:52.575Z,979.11
2018-03-22T08:59:52.390Z,979.08
2018-03-22T09:00:52.381Z,979.04
2018-03-22T09:01:52.221Z,979.04
2018-03-22T09:02:52.196Z,979.05
2018-03-22T09:03:52.056Z,979.05
2018-03-22T09:04:51.999Z,979.04
2018-03-22T09:05:51.892Z,979.01
2018-03-22T09:06:51.910Z,979.01
2018-03-22T09:07:51.730Z,979.05
2018-03-22T09:08:51.713Z,978.99
2018-03-22T09:09:51.568Z,978.96
2018-03-22T09:10:51.582Z,979.01
2018-03-22T09:11:51.399Z,978.93
2018-03-22T09:12:51.437Z,978.98
2018-03-22T09:13:51.238Z,978.91
2018-03-22T09:14:51.252Z,978.93
2018-03-22T09:15:51.079Z,978.95
2018-03-22T09:16:51.055Z,978.91
2018-03-22T09:17:50.917Z,978.90
2018-03-22T09:18:50.866Z,978.92
2018-03-22T09:19:50.751Z,978.91
2018-03-22T09:20:50.773Z,978.94
2018-03-22T09:21:50.586Z,978.83
2018-03-22T09:22:50.588Z,978.81
2018-03-22T09:23:50.419Z,978.84
2018-03-22T09:24:50.395Z,978.87
2018-03-22T09:25:50.258Z,978.79
2018-03-22T09:26:52.245Z,978.81
2018-03-22T09:27:50.116Z,978.79
2018-03-22T09:28:51.033Z,978.78
2018-03-22T09:29:49.931Z,978.76
2018-03-22T09:30:49.918Z,978.75
2018-03-22T09:31:49.766Z,978.76
2018-03-22T09:32:49.692Z,978.73
2018-03-22T09:33:49.628Z,978.67
2018-03-22T09:34:49.533Z,978.70
2018-03-22T09:35:49.547Z,978.65
2018-03-22T09:36:49.360Z,978.64
2018-03-22T09:37:49.349Z,978.65
2018-03-22T09:38:49.197Z,978.63
2018-03-22T09:39:49.161Z,978.61
2018-03-22T09:40:49.034Z,978.65
2018-03-22T09:41:49.089Z,978.67
2018-03-22T09:42:48.873Z,978.71
2018-03-22T09:43:48.804Z,978.66
2018-03-22T09:44:48.709Z,978.64
2018-03-22T09:45:48.685Z,978.63
2018-03-22T09:46:48.550Z,978.60
2018-03-22T09:47:48.499Z,978.60
2018-03-22T09:48:48.385Z,978.60
2018-03-22T09:49:48.410Z,978.54
2018-03-22T09:50:48.220Z,978.56
2018-03-22T09:51:48.211Z,978.54
2018-03-22T09:52:48.063Z,978.53
2018-03-22T09:53:48.021Z,978.49
2018-03-22T09:54:47.901Z,978.49
2018-03-22T09:55:47.932Z,978.46
2018-03-22T09:56:47.740Z,978.52
2018-03-22T09:57:47.742Z,978.53
2018-03-22T09:58:47.579Z,978.51
2018-03-22T09:59:47.547Z,978.48
2018-03-22T10:00:47.416Z,978.43
2018-03-22T10:01:47.356Z,978.48
2018-03-22T10:02:47.281Z,978.41
2018-03-22T10:03:47.267Z,978.40
2018-03-22T10:04:47.092Z,978.44
2018-03-22T10:05:47.073Z,978.43
2018-03-22T10:06:46.927Z,978.41
2018-03-22T10:07:46.883Z,978.38
2018-03-22T10:08:46.773Z,978.34
2018-03-22T10:09:46.796Z,978.36
2018-03-22T10:10:46.609Z,978.30
2018-03-22T10:11:46.602Z,978.28
2018-03-22T10:12:46.448Z,978.27
2018-03-22T10:13:46.408Z,978.29
2018-03-22T10:14:46.286Z,978.25
2018-03-22T10:15:46.320Z,978.27
2018-03-22T10:16:46.130Z,978.25
2018-03-22T10:17:46.130Z,978.18
2018-03-22T10:18:45.967Z,978.22
2018-03-22T10:19:45.940Z,978.18
2018-03-22T10:20:45.803Z,978.18
2018-03-22T10:21:45.771Z,978.20
2018-03-22T10:22:45.643Z,978.14
2018-03-22T10:23:45.658Z,978.18
2018-03-22T10:24:45.481Z,978.14
2018-03-22T10:25:45.468Z,978.13
2018-03-22T10:26:45.317Z,978.11
2018-03-22T10:27:45.276Z,978.08
2018-03-22T10:28:45.158Z,978.07
2018-03-22T10:29:45.184Z,978.04
2018-03-22T10:30:44.998Z,978.02
2018-03-22T10:31:44.991Z,977.99
2018-03-22T10:32:44.838Z,978.00
2018-03-22T10:33:44.800Z,977.98
2018-03-22T10:34:44.678Z,977.98
2018-03-22T10:35:44.710Z,977.89
2018-03-22T10:36:44.518Z,977.89
2018-03-22T10:37:44.513Z,977.92
2018-03-22T10:38:44.357Z,977.86
2018-03-22T10:39:44.331Z,977.88
2018-03-22T10:40:44.199Z,977.79
2018-03-22T10:41:44.137Z,977.79
2018-03-22T10:42:44.036Z,977.76
2018-03-22T10:43:44.048Z,977.80
2018-03-22T10:44:43.875Z,977.78
2018-03-22T10:45:43.854Z,977.73
2018-03-22T10:46:43.717Z,977.72
2018-03-22T10:47:43.659Z,977.68
2018-03-22T10:48:43.632Z,977.74
2018-03-22T10:49:43.573Z,977.68
2018-03-22T10:50:43.392Z,977.64
2018-03-22T10:51:43.382Z,977.64
2018-03-22T10:52:43.243Z,977.58
2018-03-22T10:53:43.193Z,977.57
2018-03-22T10:54:43.073Z,977.56
2018-03-22T10:55:43.109Z,977.57
2018-03-22T10:56:42.912Z,977.52
2018-03-22T10:57:42.914Z,977.53
2018-03-22T10:58:42.755Z,977.55
2018-03-22T10:59:42.681Z,977.53
2018-03-22T11:00:42.595Z,977.55
2018-03-22T11:01:42.626Z,977.45
2018-03-22T11:02:42.434Z,977.47
2018-03-22T11:03:42.437Z,977.40
2018-03-22T11:04:42.271Z,977.42
2018-03-22T11:05:42.246Z,977.45
2018-03-22T11:06:42.118Z,977.40
2018-03-22T11:07:42.054Z,977.41
2018-03-22T11:08:41.949Z,977.34
2018-03-22T11:09:41.976Z,977.34
2018-03-22T11:10:41.796Z,977.33
2018-03-22T11:11:41.772Z,977.30
2018-03-22T11:12:41.637Z,977.28
2018-03-22T11:13:41.578Z,977.28
2018-03-22T11:14:41.480Z,977.25
2018-03-22T11:15:41.490Z,977.20
2018-03-22T11:16:41.318Z,977.24
2018-03-22T11:17:41.303Z,977.24
2018-03-22T11:18:41.158Z,977.19
2018-03-22T11:19:41.108Z,977.11
2018-03-22T11:20:40.999Z,977.18
2018-03-22T11:21:40.925Z,977.18
2018-03-22T11:22:40.839Z,977.23
2018-03-22T11:23:40.828Z,977.18
2018-03-22T11:24:40.685Z,977.11
2018-03-22T11:25:40.636Z,977.16
2018-03-22T11:26:40.517Z,977.17
2018-03-22T11:27:40.543Z,977.13
2018-03-22T11:28:40.362Z,977.05
2018-03-22T11:29:40.353Z,977.03
2018-03-22T11:30:40.203Z,977.06
2018-03-22T11:31:40.171Z,977.02
2018-03-22T11:32:40.043Z,976.94
2018-03-22T11:33:40.077Z,976.93
2018-03-22T11:34:39.894Z,976.97
2018-03-22T11:35:39.881Z,976.87
2018-03-22T11:36:39.732Z,976.88
2018-03-22T11:37:39.694Z,976.89
2018-03-22T11:38:39.567Z,976.82
2018-03-22T11:39:39.602Z,976.74
2018-03-22T11:40:39.418Z,976.75
2018-03-22T11:41:39.410Z,976.73
2018-03-22T11:42:39.249Z,976.73
2018-03-22T11:43:39.215Z,976.71
2018-03-22T11:44:39.097Z,976.78
2018-03-22T11:45:39.129Z,976.72
2018-03-22T11:46:38.935Z,976.78
2018-03-22T11:47:38.938Z,976.75
2018-03-22T11:48:38.774Z,976.71
2018-03-22T11:49:38.751Z,976.77
2018-03-22T11:50:38.618Z,976.68
2018-03-22T11:51:38.556Z,976.71
2018-03-22T11:52:38.464Z,976.70
2018-03-22T11:53:38.466Z,976.65
2018-03-22T11:54:38.299Z,976.64
2018-03-22T11:55:38.270Z,976.63
2018-03-22T11:56:38.140Z,976.62
2018-03-22T11:57:38.082Z,976.64
2018-03-22T11:58:37.985Z,976.53
2018-03-22T11:59:37.989Z,976.58
2018-03-22T12:00:37.823Z,976.46
2018-03-22T12:01:37.798Z,976.49
2018-03-22T12:02:37.665Z,976.47
2018-03-22T12:03:37.619Z,976.45
2018-03-22T12:04:37.509Z,976.46
2018-03-22T12:05:37.525Z,976.44
2018-03-22T12:06:37.346Z,976.36
2018-03-22T12:07:37.327Z,976.33
2018-03-22T12:08:37.188Z,976.38
2018-03-22T12:09:37.138Z,976.35
2018-03-22T12:10:37.027Z,976.31
2018-03-22T12:11:37.045Z,976.28
2018-03-22T12:12:36.875Z,976.31
2018-03-22T12:13:36.853Z,976.33
2018-03-22T12:14:36.713Z,976.28
2018-03-22T12:15:36.665Z,976.30
2018-03-22T12:16:36.555Z,976.23
2018-03-22T12:17:36.573Z,976.24
2018-03-22T12:18:36.397Z,976.21
2018-03-22T12:19:36.382Z,976.21
2018-03-22T12:20:36.244Z,976.20
2018-03-22T12:21:36.256Z,976.18
2018-03-22T12:22:36.074Z,976.20
2018-03-22T12:23:36.104Z,976.19
2018-03-22T12:24:35.919Z,976.19
2018-03-22T12:25:35.909Z,976.11
2018-03-22T12:26:35.758Z,976.12
2018-03-22T12:27:35.717Z,976.09